Crew | Aerofun Virtual



 METAR AND TAF INFORMATION
METAR FOR EFKI
ADDS - METARS form results

(1934 UTC 21 July 2019)
Data provider http://aviationweather.gov/metar/data/
 
METAR text: EFKI 211920Z 09002KT CAVOK 17/12 Q1016
Conditions at: EFKI (KAJAANI , FI) observed 1920 UTC 21 July 2019
Temperature: 17.0°C (63°F)
Dewpoint: 12.0°C (54°F) [RH = 72%]
Pressure (altimeter): 30.00 inches Hg (1016.0 mb)
Winds: from the E (90 degrees) at 2 MPH (2 knots; 1.0 m/s)
Visibility: 6 or more miles (10+ km)
Ceiling: ceiling and visibility are OK
Clouds: unknown
Weather: no significant weather observed at this time

METAR text: EFKI 211850Z AUTO VRB01KT CAVOK 19/12 Q1016
Conditions at: EFKI (KAJAANI , FI) observed 1850 UTC 21 July 2019
Temperature: 19.0°C (66°F)
Dewpoint: 12.0°C (54°F) [RH = 64%]
Pressure (altimeter): 30.00 inches Hg (1016.0 mb)
Winds: variable direction winds at 1 MPH (1 knots; 0.5 m/s)
Visibility: 6 or more miles (10+ km)
Ceiling: ceiling and visibility are OK
Clouds: unknown
Weather: no significant weather observed at this time

Forecast for: EFKI (KAJAANI , FI)
Text: TAF EFKI 211725Z 2118/2121 30004KT CAVOK
Forecast period: 1800 to 2100 UTC 21 July 2019
Forecast type: FROM: standard forecast or significant change
Winds: from the WNW (300 degrees) at 5 MPH (4 knots; 2.1 m/s)
Visibility: 6 or more miles 10+ km)
Ceiling: unknown
Clouds: missing
Weather: NSW  (no significant weather)

 AIRPORT MAP

 RUNWAY INFORMATION
Runway 07 Runway length 8199 ft Runway width 157 ft
Runway elevation 430 ft Runway displaced threshold 0 ft Runway heading 80
Runway 25 Runway length 8199 ft Runway width 157 ft
Runway elevation 483 ft Runway displaced threshold 0 ft Runway heading 260

 AIRPORT FREQUENCIES
Type AFIS Name AFIS Frequency 118.1 MHZ
Type ATIS Name ATIS Frequency 114.9 MHZ

 AIRPORT NEAR NAVIGATION AIDS
Type NDB Name Kajaani Frequency 337 KHZ
Type VOR-DME Name Kainuu Frequency 114900 KHZ